sensor_id;sensor_type;location;lat;lon;timestamp;pressure;altitude;pressure_sealevel;temperature;humidity
18569;BME280;14780;48.316;-1.050;2022-07-09T00:00:40;100471.84;;;24.59;45.52
18569;BME280;14780;48.316;-1.050;2022-07-09T00:03:25;100465.81;;;24.57;45.45
18569;BME280;14780;48.316;-1.050;2022-07-09T00:06:10;100469.81;;;24.54;45.61
18569;BME280;14780;48.316;-1.050;2022-07-09T00:08:54;100467.09;;;24.54;45.65
18569;BME280;14780;48.316;-1.050;2022-07-09T00:11:39;100466.28;;;24.54;45.52
18569;BME280;14780;48.316;-1.050;2022-07-09T00:14:23;100466.50;;;24.52;45.58
18569;BME280;14780;48.316;-1.050;2022-07-09T00:17:08;100462.34;;;24.50;45.64
18569;BME280;14780;48.316;-1.050;2022-07-09T00:19:53;100460.69;;;24.49;45.55
18569;BME280;14780;48.316;-1.050;2022-07-09T00:22:38;100458.19;;;24.47;45.79
18569;BME280;14780;48.316;-1.050;2022-07-09T00:25:22;100455.94;;;24.44;45.88
18569;BME280;14780;48.316;-1.050;2022-07-09T00:28:07;100457.03;;;24.43;45.91
18569;BME280;14780;48.316;-1.050;2022-07-09T00:30:52;100453.69;;;24.41;45.82
18569;BME280;14780;48.316;-1.050;2022-07-09T00:33:36;100452.88;;;24.41;45.93
18569;BME280;14780;48.316;-1.050;2022-07-09T00:36:21;100444.91;;;24.39;45.97
18569;BME280;14780;48.316;-1.050;2022-07-09T00:39:06;100454.19;;;24.38;45.99
18569;BME280;14780;48.316;-1.050;2022-07-09T00:42:01;100443.47;;;24.37;46.06
18569;BME280;14780;48.316;-1.050;2022-07-09T00:44:46;100444.56;;;24.36;46.08
18569;BME280;14780;48.316;-1.050;2022-07-09T00:47:31;100438.50;;;24.34;46.11
18569;BME280;14780;48.316;-1.050;2022-07-09T00:50:16;100433.28;;;24.32;46.13
18569;BME280;14780;48.316;-1.050;2022-07-09T00:53:02;100436.00;;;24.32;46.09
18569;BME280;14780;48.316;-1.050;2022-07-09T00:55:48;100435.44;;;24.30;46.29
18569;BME280;14780;48.316;-1.050;2022-07-09T00:58:33;100433.78;;;24.29;46.23
18569;BME280;14780;48.316;-1.050;2022-07-09T01:01:19;100435.06;;;24.27;46.14
18569;BME280;14780;48.316;-1.050;2022-07-09T01:04:04;100427.09;;;24.25;46.32
18569;BME280;14780;48.316;-1.050;2022-07-09T01:06:49;100429.84;;;24.25;46.30
18569;BME280;14780;48.316;-1.050;2022-07-09T01:09:34;100415.59;;;24.23;46.41
18569;BME280;14780;48.316;-1.050;2022-07-09T01:12:19;100423.78;;;24.23;46.35
18569;BME280;14780;48.316;-1.050;2022-07-09T01:15:05;100415.00;;;24.21;46.42
18569;BME280;14780;48.316;-1.050;2022-07-09T01:17:50;100419.88;;;24.19;46.49
18569;BME280;14780;48.316;-1.050;2022-07-09T01:20:36;100413.81;;;24.17;46.48
18569;BME280;14780;48.316;-1.050;2022-07-09T01:23:21;100409.19;;;24.18;46.54
18569;BME280;14780;48.316;-1.050;2022-07-09T01:26:07;100414.91;;;24.16;46.56
18569;BME280;14780;48.316;-1.050;2022-07-09T01:28:52;100408.00;;;24.14;46.61
18569;BME280;14780;48.316;-1.050;2022-07-09T01:31:37;100409.91;;;24.13;46.58
18569;BME280;14780;48.316;-1.050;2022-07-09T01:34:21;100410.16;;;24.12;46.72
18569;BME280;14780;48.316;-1.050;2022-07-09T01:37:06;100419.44;;;24.11;46.61
18569;BME280;14780;48.316;-1.050;2022-07-09T01:39:52;100413.63;;;24.07;46.85
18569;BME280;14780;48.316;-1.050;2022-07-09T01:42:37;100426.22;;;24.08;46.75
18569;BME280;14780;48.316;-1.050;2022-07-09T01:45:21;100415.28;;;24.08;46.68
18569;BME280;14780;48.316;-1.050;2022-07-09T01:48:07;100411.97;;;24.06;46.83
18569;BME280;14780;48.316;-1.050;2022-07-09T01:50:51;100406.50;;;24.06;46.80
18569;BME280;14780;48.316;-1.050;2022-07-09T01:53:38;100411.34;;;24.04;46.78
18569;BME280;14780;48.316;-1.050;2022-07-09T01:56:24;100412.66;;;24.02;46.93
18569;BME280;14780;48.316;-1.050;2022-07-09T01:59:08;100411.28;;;23.99;46.98
18569;BME280;14780;48.316;-1.050;2022-07-09T02:01:53;100405.19;;;23.97;46.99
18569;BME280;14780;48.316;-1.050;2022-07-09T02:04:38;100403.53;;;23.96;46.94
18569;BME280;14780;48.316;-1.050;2022-07-09T02:07:22;100409.00;;;23.96;47.13
18569;BME280;14780;48.316;-1.050;2022-07-09T02:10:07;100407.34;;;23.95;47.07
18569;BME280;14780;48.316;-1.050;2022-07-09T02:12:52;100404.03;;;23.93;47.05
18569;BME280;14780;48.316;-1.050;2022-07-09T02:15:37;100410.56;;;23.92;47.21
18569;BME280;14780;48.316;-1.050;2022-07-09T02:18:22;100406.16;;;23.91;47.15
18569;BME280;14780;48.316;-1.050;2022-07-09T02:21:07;100414.34;;;23.91;47.32
18569;BME280;14780;48.316;-1.050;2022-07-09T02:23:52;100415.44;;;23.90;47.38
18569;BME280;14780;48.316;-1.050;2022-07-09T02:26:43;100405.56;;;23.89;47.37
18569;BME280;14780;48.316;-1.050;2022-07-09T02:29:28;100407.72;;;23.87;47.29
18569;BME280;14780;48.316;-1.050;2022-07-09T02:32:12;100402.72;;;23.84;47.42
18569;BME280;14780;48.316;-1.050;2022-07-09T02:34:58;100404.38;;;23.85;47.35
18569;BME280;14780;48.316;-1.050;2022-07-09T02:37:42;100400.59;;;23.86;47.48
18569;BME280;14780;48.316;-1.050;2022-07-09T02:40:27;100404.38;;;23.85;47.39
18569;BME280;14780;48.316;-1.050;2022-07-09T02:43:12;100395.56;;;23.83;47.42
18569;BME280;14780;48.316;-1.050;2022-07-09T02:45:57;100399.38;;;23.82;47.49
18569;BME280;14780;48.316;-1.050;2022-07-09T02:48:42;100397.72;;;23.81;47.53
18569;BME280;14780;48.316;-1.050;2022-07-09T02:51:26;100396.91;;;23.81;47.52
18569;BME280;14780;48.316;-1.050;2022-07-09T02:54:11;100385.63;;;23.77;47.63
18569;BME280;14780;48.316;-1.050;2022-07-09T02:56:56;100394.03;;;23.76;47.63
18569;BME280;14780;48.316;-1.050;2022-07-09T02:59:41;100391.53;;;23.74;47.60
18569;BME280;14780;48.316;-1.050;2022-07-09T03:02:26;100397.00;;;23.74;47.61
18569;BME280;14780;48.316;-1.050;2022-07-09T03:05:11;100391.53;;;23.74;47.71
18569;BME280;14780;48.316;-1.050;2022-07-09T03:07:55;100395.34;;;23.73;47.80
18569;BME280;14780;48.316;-1.050;2022-07-09T03:10:40;100390.38;;;23.70;47.73
18569;BME280;14780;48.316;-1.050;2022-07-09T03:13:25;100388.47;;;23.71;47.84
18569;BME280;14780;48.316;-1.050;2022-07-09T03:16:09;100384.06;;;23.70;47.81
18569;BME280;14780;48.316;-1.050;2022-07-09T03:18:56;100387.88;;;23.69;47.79
18569;BME280;14780;48.316;-1.050;2022-07-09T03:21:40;100393.34;;;23.69;47.80
18569;BME280;14780;48.316;-1.050;2022-07-09T03:24:25;100394.16;;;23.69;47.89
18569;BME280;14780;48.316;-1.050;2022-07-09T03:27:10;100396.31;;;23.67;47.93
18569;BME280;14780;48.316;-1.050;2022-07-09T03:29:55;100396.31;;;23.67;47.93
18569;BME280;14780;48.316;-1.050;2022-07-09T03:32:40;100395.13;;;23.63;47.88
18569;BME280;14780;48.316;-1.050;2022-07-09T03:35:24;100391.34;;;23.64;47.91
18569;BME280;14780;48.316;-1.050;2022-07-09T03:38:09;100394.06;;;23.64;47.98
18569;BME280;14780;48.316;-1.050;2022-07-09T03:40:54;100395.59;;;23.60;48.09
18569;BME280;14780;48.316;-1.050;2022-07-09T03:43:39;100389.31;;;23.60;48.17
18569;BME280;14780;48.316;-1.050;2022-07-09T03:46:23;100395.59;;;23.60;48.05
18569;BME280;14780;48.316;-1.050;2022-07-09T03:49:09;100391.44;;;23.58;48.06
18569;BME280;14780;48.316;-1.050;2022-07-09T03:51:55;100397.75;;;23.58;48.20
18569;BME280;14780;48.316;-1.050;2022-07-09T03:54:40;100399.41;;;23.59;48.07
18569;BME280;14780;48.316;-1.050;2022-07-09T03:57:25;100395.03;;;23.58;48.25
18569;BME280;14780;48.316;-1.050;2022-07-09T04:00:09;100396.56;;;23.54;48.23
18569;BME280;14780;48.316;-1.050;2022-07-09T04:02:55;100391.69;;;23.56;48.19
18569;BME280;14780;48.316;-1.050;2022-07-09T04:05:40;100388.97;;;23.56;48.24
18569;BME280;14780;48.316;-1.050;2022-07-09T04:08:26;100396.56;;;23.54;48.18
18569;BME280;14780;48.316;-1.050;2022-07-09T04:11:10;100388.13;;;23.56;48.29
18569;BME280;14780;48.316;-1.050;2022-07-09T04:13:55;100394.06;;;23.53;48.40
18569;BME280;14780;48.316;-1.050;2022-07-09T04:16:40;100392.16;;;23.53;48.37
18569;BME280;14780;48.316;-1.050;2022-07-09T04:19:25;100389.44;;;23.53;48.36
18569;BME280;14780;48.316;-1.050;2022-07-09T04:22:10;100381.72;;;23.50;48.37
18569;BME280;14780;48.316;-1.050;2022-07-09T04:24:54;100387.78;;;23.52;48.34
18569;BME280;14780;48.316;-1.050;2022-07-09T04:27:40;100380.66;;;23.51;48.40
18569;BME280;14780;48.316;-1.050;2022-07-09T04:30:25;100383.38;;;23.51;48.36
18569;BME280;14780;48.316;-1.050;2022-07-09T04:33:10;100377.91;;;23.51;48.51
18569;BME280;14780;48.316;-1.050;2022-07-09T04:35:55;100377.06;;;23.51;48.46
18569;BME280;14780;48.316;-1.050;2022-07-09T04:38:40;100372.69;;;23.50;48.41
18569;BME280;14780;48.316;-1.050;2022-07-09T04:41:24;100371.25;;;23.47;48.50
18569;BME280;14780;48.316;-1.050;2022-07-09T04:44:09;100374.34;;;23.51;48.58
18569;BME280;14780;48.316;-1.050;2022-07-09T04:46:56;100376.50;;;23.49;48.60
18569;BME280;14780;48.316;-1.050;2022-07-09T04:49:40;100372.94;;;23.48;48.53
18569;BME280;14780;48.316;-1.050;2022-07-09T04:52:25;100372.94;;;23.48;48.53
18569;BME280;14780;48.316;-1.050;2022-07-09T04:55:11;100379.00;;;23.50;48.65
18569;BME280;14780;48.316;-1.050;2022-07-09T04:57:56;100382.53;;;23.51;48.55
18569;BME280;14780;48.316;-1.050;2022-07-09T05:00:41;100378.16;;;23.50;48.53
18569;BME280;14780;48.316;-1.050;2022-07-09T05:03:26;100383.16;;;23.53;48.57
18569;BME280;14780;48.316;-1.050;2022-07-09T05:06:10;100377.34;;;23.49;48.59
18569;BME280;14780;48.316;-1.050;2022-07-09T05:08:55;100387.19;;;23.50;48.64
18569;BME280;14780;48.316;-1.050;2022-07-09T05:11:40;100383.63;;;23.50;48.77
18569;BME280;14780;48.316;-1.050;2022-07-09T05:14:24;100386.34;;;23.50;48.68
18569;BME280;14780;48.316;-1.050;2022-07-09T05:17:09;100383.63;;;23.50;48.77
18569;BME280;14780;48.316;-1.050;2022-07-09T05:19:53;100382.81;;;23.49;48.72
18569;BME280;14780;48.316;-1.050;2022-07-09T05:22:39;100378.16;;;23.50;48.79
18569;BME280;14780;48.316;-1.050;2022-07-09T05:25:24;100380.06;;;23.49;48.78
18569;BME280;14780;48.316;-1.050;2022-07-09T05:28:09;100376.25;;;23.50;48.79
18569;BME280;14780;48.316;-1.050;2022-07-09T05:30:53;100379.34;;;23.54;48.69
18569;BME280;14780;48.316;-1.050;2022-07-09T05:33:38;100386.13;;;23.51;48.74
18569;BME280;14780;48.316;-1.050;2022-07-09T05:36:23;100386.13;;;23.51;48.83
18569;BME280;14780;48.316;-1.050;2022-07-09T05:39:08;100379.00;;;23.50;48.76
18569;BME280;14780;48.316;-1.050;2022-07-09T05:41:53;100379.81;;;23.51;48.84
18569;BME280;14780;48.316;-1.050;2022-07-09T05:44:37;100386.13;;;23.51;48.80
18569;BME280;14780;48.316;-1.050;2022-07-09T05:47:22;100393.25;;;23.52;48.82
18569;BME280;14780;48.316;-1.050;2022-07-09T05:50:07;100394.91;;;23.53;48.76
18569;BME280;14780;48.316;-1.050;2022-07-09T05:52:51;100401.19;;;23.54;48.84
18569;BME280;14780;48.316;-1.050;2022-07-09T05:55:36;100395.47;;;23.55;48.75
18569;BME280;14780;48.316;-1.050;2022-07-09T05:58:21;100396.31;;;23.56;48.72
18569;BME280;14780;48.316;-1.050;2022-07-09T06:01:06;100396.09;;;23.57;48.72
18569;BME280;14780;48.316;-1.050;2022-07-09T06:03:51;100391.44;;;23.58;48.78
18569;BME280;14780;48.316;-1.050;2022-07-09T06:06:35;100402.13;;;23.59;48.73
18569;BME280;14780;48.316;-1.050;2022-07-09T06:09:20;100400.25;;;23.60;48.82
18569;BME280;14780;48.316;-1.050;2022-07-09T06:12:06;100403.81;;;23.60;48.76
18569;BME280;14780;48.316;-1.050;2022-07-09T06:14:51;100407.13;;;23.62;48.82
18569;BME280;14780;48.316;-1.050;2022-07-09T06:17:35;100413.66;;;23.61;48.67
18569;BME280;14780;48.316;-1.050;2022-07-09T06:20:20;100414.84;;;23.65;48.74
18569;BME280;14780;48.316;-1.050;2022-07-09T06:23:04;100415.66;;;23.66;48.70
18569;BME280;14780;48.316;-1.050;2022-07-09T06:25:50;100412.94;;;23.66;48.76
18569;BME280;14780;48.316;-1.050;2022-07-09T06:28:38;100410.91;;;23.73;48.57
18569;BME280;14780;48.316;-1.050;2022-07-09T06:31:23;100408.91;;;23.68;48.67
18569;BME280;14780;48.316;-1.050;2022-07-09T06:34:08;100413.06;;;23.71;48.73
18569;BME280;14780;48.316;-1.050;2022-07-09T06:36:54;100412.81;;;23.72;48.77
18569;BME280;14780;48.316;-1.050;2022-07-09T06:39:39;100408.78;;;23.75;48.66
18569;BME280;14780;48.316;-1.050;2022-07-09T06:42:30;100407.00;;;23.80;48.61
18569;BME280;14780;48.316;-1.050;2022-07-09T06:45:15;100401.53;;;23.80;48.73
18569;BME280;14780;48.316;-1.050;2022-07-09T06:48:00;100408.66;;;23.81;48.63
18569;BME280;14780;48.316;-1.050;2022-07-09T06:50:44;100408.19;;;23.84;48.50
18569;BME280;14780;48.316;-1.050;2022-07-09T06:53:29;100398.06;;;23.85;48.63
18569;BME280;14780;48.316;-1.050;2022-07-09T06:56:14;100407.72;;;23.87;48.54
18569;BME280;14780;48.316;-1.050;2022-07-09T06:58:58;100407.50;;;23.89;48.61
18569;BME280;14780;48.316;-1.050;2022-07-09T07:01:43;100412.69;;;23.90;48.58
18569;BME280;14780;48.316;-1.050;2022-07-09T07:04:27;100410.56;;;23.92;48.47
18569;BME280;14780;48.316;-1.050;2022-07-09T07:07:12;100400.22;;;23.94;48.47
18569;BME280;14780;48.316;-1.050;2022-07-09T07:09:57;100400.22;;;23.94;48.65
18569;BME280;14780;48.316;-1.050;2022-07-09T07:12:42;100406.03;;;23.98;48.54
18569;BME280;14780;48.316;-1.050;2022-07-09T07:15:26;100402.00;;;24.00;48.54
18569;BME280;14780;48.316;-1.050;2022-07-09T07:18:11;100406.63;;;24.00;48.43
18569;BME280;14780;48.316;-1.050;2022-07-09T07:20:56;100396.25;;;24.02;48.49
18569;BME280;14780;48.316;-1.050;2022-07-09T07:23:41;100399.59;;;24.04;48.52
18569;BME280;14780;48.316;-1.050;2022-07-09T07:26:25;100404.56;;;24.07;48.50
18569;BME280;14780;48.316;-1.050;2022-07-09T07:29:10;100408.97;;;24.08;48.42
18569;BME280;14780;48.316;-1.050;2022-07-09T07:31:55;100404.91;;;24.10;48.42
18569;BME280;14780;48.316;-1.050;2022-07-09T07:34:42;100398.38;;;24.11;48.32
18569;BME280;14780;48.316;-1.050;2022-07-09T07:37:26;100397.06;;;24.14;48.32
18569;BME280;14780;48.316;-1.050;2022-07-09T07:40:11;100403.09;;;24.16;48.35
18569;BME280;14780;48.316;-1.050;2022-07-09T07:42:56;100407.53;;;24.17;48.24
18569;BME280;14780;48.316;-1.050;2022-07-09T07:45:41;100404.53;;;24.18;48.21
18569;BME280;14780;48.316;-1.050;2022-07-09T07:48:26;100410.84;;;24.19;48.19
18569;BME280;14780;48.316;-1.050;2022-07-09T07:51:11;100414.16;;;24.21;48.20
18569;BME280;14780;48.316;-1.050;2022-07-09T07:53:56;100406.81;;;24.21;48.16
18569;BME280;14780;48.316;-1.050;2022-07-09T07:56:42;100403.00;;;24.22;48.08
18569;BME280;14780;48.316;-1.050;2022-07-09T07:59:27;100408.19;;;24.24;48.18
18569;BME280;14780;48.316;-1.050;2022-07-09T08:02:12;100410.69;;;24.25;48.09
18569;BME280;14780;48.316;-1.050;2022-07-09T08:04:57;100404.16;;;24.26;48.18
18569;BME280;14780;48.316;-1.050;2022-07-09T08:07:42;100406.66;;;24.28;48.09
18569;BME280;14780;48.316;-1.050;2022-07-09T08:10:27;100401.19;;;24.28;48.08
18569;BME280;14780;48.316;-1.050;2022-07-09T08:13:11;100401.75;;;24.30;48.03
18569;BME280;14780;48.316;-1.050;2022-07-09T08:15:57;100403.41;;;24.31;47.94
18569;BME280;14780;48.316;-1.050;2022-07-09T08:18:41;100399.63;;;24.32;48.01
18569;BME280;14780;48.316;-1.050;2022-07-09T08:21:26;100390.34;;;24.33;47.87
18569;BME280;14780;48.316;-1.050;2022-07-09T08:24:10;100392.81;;;24.34;47.85
18569;BME280;14780;48.316;-1.050;2022-07-09T08:26:56;100390.06;;;24.34;47.91
18569;BME280;14780;48.316;-1.050;2022-07-09T08:29:41;100396.97;;;24.37;47.88
18569;BME280;14780;48.316;-1.050;2022-07-09T08:32:27;100395.88;;;24.38;47.77
18569;BME280;14780;48.316;-1.050;2022-07-09T08:35:13;100394.84;;;24.39;47.89
18569;BME280;14780;48.316;-1.050;2022-07-09T08:37:58;100391.84;;;24.40;47.83
18569;BME280;14780;48.316;-1.050;2022-07-09T08:40:43;100397.31;;;24.40;47.68
18569;BME280;14780;48.316;-1.050;2022-07-09T08:43:34;100396.84;;;24.43;47.67
18569;BME280;14780;48.316;-1.050;2022-07-09T08:46:20;100388.63;;;24.43;47.68
18569;BME280;14780;48.316;-1.050;2022-07-09T08:49:06;100390.06;;;24.46;47.74
18569;BME280;14780;48.316;-1.050;2022-07-09T08:51:52;100386.47;;;24.45;47.57
18569;BME280;14780;48.316;-1.050;2022-07-09T08:54:40;100387.06;;;24.47;47.69
18569;BME280;14780;48.316;-1.050;2022-07-09T08:57:27;100389.78;;;24.47;47.68
18569;BME280;14780;48.316;-1.050;2022-07-09T09:00:12;100390.13;;;24.51;47.57
18569;BME280;14780;48.316;-1.050;2022-07-09T09:02:57;100386.06;;;24.53;47.38
18569;BME280;14780;48.316;-1.050;2022-07-09T09:05:42;100391.78;;;24.52;47.51
18569;BME280;14780;48.316;-1.050;2022-07-09T09:08:27;100397.03;;;24.53;47.57
18569;BME280;14780;48.316;-1.050;2022-07-09T09:11:20;100394.91;;;24.55;47.50
18569;BME280;14780;48.316;-1.050;2022-07-09T09:14:07;100385.50;;;24.51;47.49
18569;BME280;14780;48.316;-1.050;2022-07-09T09:17:06;100380.97;;;24.57;47.47
18569;BME280;14780;48.316;-1.050;2022-07-09T09:19:53;100384.78;;;24.56;47.41
18569;BME280;14780;48.316;-1.050;2022-07-09T09:22:45;100384.06;;;24.60;47.35
18569;BME280;14780;48.316;-1.050;2022-07-09T09:25:31;100385.59;;;24.56;47.40
18569;BME280;14780;48.316;-1.050;2022-07-09T09:28:15;100383.47;;;24.58;47.33
18569;BME280;14780;48.316;-1.050;2022-07-09T09:31:00;100382.38;;;24.59;47.29
18569;BME280;14780;48.316;-1.050;2022-07-09T09:33:44;100383.19;;;24.60;47.26
18569;BME280;14780;48.316;-1.050;2022-07-09T09:36:37;100375.94;;;24.65;47.19
18569;BME280;14780;48.316;-1.050;2022-07-09T09:39:25;100386.28;;;24.63;47.16
18569;BME280;14780;48.316;-1.050;2022-07-09T09:42:11;100382.50;;;24.64;47.25
18569;BME280;14780;48.316;-1.050;2022-07-09T09:45:00;100381.41;;;24.65;47.24
18569;BME280;14780;48.316;-1.050;2022-07-09T09:47:49;100386.38;;;24.68;47.29
18569;BME280;14780;48.316;-1.050;2022-07-09T09:50:35;100388.53;;;24.66;47.22
18569;BME280;14780;48.316;-1.050;2022-07-09T09:53:21;100385.31;;;24.69;47.25
18569;BME280;14780;48.316;-1.050;2022-07-09T09:56:09;100383.16;;;24.71;47.10
18569;BME280;14780;48.316;-1.050;2022-07-09T09:58:54;100386.97;;;24.70;47.16
18569;BME280;14780;48.316;-1.050;2022-07-09T10:01:41;100379.34;;;24.72;47.07
18569;BME280;14780;48.316;-1.050;2022-07-09T10:04:26;100391.94;;;24.73;47.07
18569;BME280;14780;48.316;-1.050;2022-07-09T10:07:14;100385.41;;;24.74;47.14
18569;BME280;14780;48.316;-1.050;2022-07-09T10:10:00;100383.50;;;24.75;47.01
18569;BME280;14780;48.316;-1.050;2022-07-09T10:12:45;100385.97;;;24.76;46.99
18569;BME280;14780;48.316;-1.050;2022-07-09T10:15:32;100389.31;;;24.78;47.06
18569;BME280;14780;48.316;-1.050;2022-07-09T10:18:18;100392.06;;;24.78;47.03
18569;BME280;14780;48.316;-1.050;2022-07-09T10:21:03;100389.31;;;24.78;46.90
18569;BME280;14780;48.316;-1.050;2022-07-09T10:23:51;100389.66;;;24.82;46.87
18569;BME280;14780;48.316;-1.050;2022-07-09T10:29:28;100398.44;;;24.84;46.99
18569;BME280;14780;48.316;-1.050;2022-07-09T10:32:28;100392.78;;;24.90;46.96
18569;BME280;14780;48.316;-1.050;2022-07-09T10:35:13;100394.63;;;24.85;46.76
18569;BME280;14780;48.316;-1.050;2022-07-09T10:37:58;100386.97;;;24.87;46.77
18569;BME280;14780;48.316;-1.050;2022-07-09T10:40:46;100381.50;;;24.87;46.89
18569;BME280;14780;48.316;-1.050;2022-07-09T10:43:41;100384.66;;;24.95;46.72
18569;BME280;14780;48.316;-1.050;2022-07-09T10:46:30;100381.03;;;24.90;46.71
18569;BME280;14780;48.316;-1.050;2022-07-09T10:49:16;100378.03;;;24.91;46.83
18569;BME280;14780;48.316;-1.050;2022-07-09T10:52:01;100372.53;;;24.91;46.80
18569;BME280;14780;48.316;-1.050;2022-07-09T10:54:48;100378.63;;;24.93;46.72
18569;BME280;14780;48.316;-1.050;2022-07-09T10:57:35;100372.06;;;24.94;46.57
18569;BME280;14780;48.316;-1.050;2022-07-09T11:00:27;100366.66;;;24.99;46.63
18569;BME280;14780;48.316;-1.050;2022-07-09T11:03:13;100364.66;;;24.95;46.79
18569;BME280;14780;48.316;-1.050;2022-07-09T11:05:58;100364.41;;;24.96;46.66
18569;BME280;14780;48.316;-1.050;2022-07-09T11:08:43;100366.06;;;24.97;46.64
18569;BME280;14780;48.316;-1.050;2022-07-09T11:11:28;100374.88;;;24.99;46.48
18569;BME280;14780;48.316;-1.050;2022-07-09T11:14:12;100371.06;;;25.00;46.40
18569;BME280;14780;48.316;-1.050;2022-07-09T11:16:58;100363.44;;;25.02;46.60
18569;BME280;14780;48.316;-1.050;2022-07-09T11:19:47;100362.09;;;25.05;46.44
18569;BME280;14780;48.316;-1.050;2022-07-09T11:22:32;100353.88;;;25.05;46.43
18569;BME280;14780;48.316;-1.050;2022-07-09T11:25:17;100358.28;;;25.06;46.53
18569;BME280;14780;48.316;-1.050;2022-07-09T11:28:03;100354.69;;;25.05;46.42
18569;BME280;14780;48.316;-1.050;2022-07-09T11:31:02;100355.97;;;25.14;46.39
18569;BME280;14780;48.316;-1.050;2022-07-09T11:33:46;100349.81;;;25.07;46.29
18569;BME280;14780;48.316;-1.050;2022-07-09T11:36:55;100347.66;;;25.09;46.41
18569;BME280;14780;48.316;-1.050;2022-07-09T11:39:41;100346.00;;;25.08;46.39
18569;BME280;14780;48.316;-1.050;2022-07-09T11:42:42;100339.53;;;25.14;46.50
18569;BME280;14780;48.316;-1.050;2022-07-09T11:45:30;100342.66;;;25.06;46.22
18569;BME280;14780;48.316;-1.050;2022-07-09T11:48:15;100346.00;;;25.08;46.35
18569;BME280;14780;48.316;-1.050;2022-07-09T11:50:59;100341.59;;;25.07;46.34
18569;BME280;14780;48.316;-1.050;2022-07-09T11:53:50;100334.06;;;25.14;46.30
18569;BME280;14780;48.316;-1.050;2022-07-09T11:56:45;100333.28;;;25.19;46.13
18569;BME280;14780;48.316;-1.050;2022-07-09T11:59:32;100328.06;;;25.17;46.24
18569;BME280;14780;48.316;-1.050;2022-07-09T12:02:33;100320.00;;;25.27;45.88
18569;BME280;14780;48.316;-1.050;2022-07-09T12:08:10;100321.69;;;25.12;46.05
18569;BME280;14780;48.316;-1.050;2022-07-09T12:10:55;100321.59;;;25.23;46.21
18569;BME280;14780;48.316;-1.050;2022-07-09T12:13:41;100319.53;;;25.30;46.08
18569;BME280;14780;48.316;-1.050;2022-07-09T12:16:25;100317.91;;;25.34;45.97
18569;BME280;14780;48.316;-1.050;2022-07-09T12:19:10;100315.25;;;25.39;45.75
18569;BME280;14780;48.316;-1.050;2022-07-09T12:21:54;100312.44;;;25.34;45.95
18569;BME280;14780;48.316;-1.050;2022-07-09T12:24:40;100318.84;;;25.40;45.86
18569;BME280;14780;48.316;-1.050;2022-07-09T12:27:24;100311.94;;;25.37;45.81
18569;BME280;14780;48.316;-1.050;2022-07-09T12:30:09;100304.38;;;25.44;45.69
18569;BME280;14780;48.316;-1.050;2022-07-09T12:32:54;100298.13;;;25.49;45.73
18569;BME280;14780;48.316;-1.050;2022-07-09T12:35:40;100296.53;;;25.53;45.56
18569;BME280;14780;48.316;-1.050;2022-07-09T12:38:25;100294.94;;;25.57;45.61
18569;BME280;14780;48.316;-1.050;2022-07-09T12:41:10;100299.59;;;25.56;45.56
18569;BME280;14780;48.316;-1.050;2022-07-09T12:43:55;100296.28;;;25.54;45.46
18569;BME280;14780;48.316;-1.050;2022-07-09T12:46:39;100286.66;;;25.52;45.45
18569;BME280;14780;48.316;-1.050;2022-07-09T12:49:25;100288.69;;;25.61;45.45
18569;BME280;14780;48.316;-1.050;2022-07-09T12:52:09;100286.78;;;25.62;45.44
18569;BME280;14780;48.316;-1.050;2022-07-09T12:54:54;100285.94;;;25.61;45.42
18569;BME280;14780;48.316;-1.050;2022-07-09T12:57:39;100279.44;;;25.67;45.27
18569;BME280;14780;48.316;-1.050;2022-07-09T13:00:24;100284.41;;;25.70;45.21
18569;BME280;14780;48.316;-1.050;2022-07-09T13:03:09;100283.38;;;25.76;44.90
18569;BME280;14780;48.316;-1.050;2022-07-09T13:05:54;100286.28;;;25.86;44.96
18569;BME280;14780;48.316;-1.050;2022-07-09T13:08:39;100285.78;;;25.89;44.99
18569;BME280;14780;48.316;-1.050;2022-07-09T13:11:24;100287.59;;;26.05;44.53
18569;BME280;14780;48.316;-1.050;2022-07-09T13:14:09;100282.53;;;26.19;44.58
18569;BME280;14780;48.316;-1.050;2022-07-09T13:16:54;100278.88;;;26.40;44.16
18569;BME280;14780;48.316;-1.050;2022-07-09T13:19:38;100278.00;;;26.61;44.10
18569;BME280;14780;48.316;-1.050;2022-07-09T13:22:23;100274.16;;;26.62;43.85
18569;BME280;14780;48.316;-1.050;2022-07-09T13:25:08;100264.94;;;26.73;43.74
18569;BME280;14780;48.316;-1.050;2022-07-09T13:27:53;100258.13;;;26.80;43.79
18569;BME280;14780;48.316;-1.050;2022-07-09T13:30:37;100260.41;;;26.93;43.58
18569;BME280;14780;48.316;-1.050;2022-07-09T13:33:22;100265.97;;;27.03;43.42
18569;BME280;14780;48.316;-1.050;2022-07-09T13:36:07;100262.19;;;27.09;43.10
18569;BME280;14780;48.316;-1.050;2022-07-09T13:38:53;100259.53;;;27.24;42.80
18569;BME280;14780;48.316;-1.050;2022-07-09T13:41:37;100258.53;;;27.40;42.61
18569;BME280;14780;48.316;-1.050;2022-07-09T13:44:22;100256.09;;;27.49;42.13
18569;BME280;14780;48.316;-1.050;2022-07-09T13:47:06;100255.06;;;27.65;42.09
18569;BME280;14780;48.316;-1.050;2022-07-09T13:49:51;100250.19;;;27.82;41.89
18569;BME280;14780;48.316;-1.050;2022-07-09T13:52:36;100251.06;;;28.02;41.62
18569;BME280;14780;48.316;-1.050;2022-07-09T13:55:21;100242.28;;;28.15;41.30
18569;BME280;14780;48.316;-1.050;2022-07-09T13:58:07;100244.81;;;28.42;41.17
18569;BME280;14780;48.316;-1.050;2022-07-09T14:00:52;100243.72;;;28.58;40.95
18569;BME280;14780;48.316;-1.050;2022-07-09T14:03:37;100248.69;;;28.66;40.50
18569;BME280;14780;48.316;-1.050;2022-07-09T14:06:21;100239.03;;;28.78;40.34
18569;BME280;14780;48.316;-1.050;2022-07-09T14:09:06;100242.31;;;29.05;40.37
18569;BME280;14780;48.316;-1.050;2022-07-09T14:11:51;100227.00;;;29.57;40.53
18569;BME280;14780;48.316;-1.050;2022-07-09T14:14:35;100229.19;;;30.09;39.49
18569;BME280;14780;48.316;-1.050;2022-07-09T14:17:20;100237.84;;;30.36;38.60
18569;BME280;14780;48.316;-1.050;2022-07-09T14:20:06;100234.06;;;30.89;38.29